Time;durP1;ratioP1;P1;durP2;ratioP2;P2;SDS_P1;SDS_P2;PMS_P1;PMS_P2;Temp;Humidity;BMP_temperature;BMP_pressure;BME280_temperature;BME280_humidity;BME280_pressure;Samples;Min_cycle;Max_cycle;Signal;HPM_P1;HPM_P2
2021/03/31 00:04:19;;;;;;;10.20;2.45;;;16.30;32.40;;;;;;20914597;28;20504;-57
2021/03/31 00:14:20;;;;;;;13.88;3.22;;;16.20;32.40;;;;;;20914944;28;20033;-58
2021/03/31 00:24:21;;;;;;;6.88;2.30;;;16.10;32.30;;;;;;20914088;28;20045;-57
2021/03/31 00:34:21;;;;;;;10.63;2.70;;;16.10;32.40;;;;;;20913833;28;20108;-55
2021/03/31 00:44:22;;;;;;;11.25;2.72;;;16.00;32.30;;;;;;20913602;28;20254;-57
2021/03/31 00:54:23;;;;;;;8.50;2.72;;;15.80;32.30;;;;;;20912621;28;20055;-57
2021/03/31 01:04:24;;;;;;;11.68;3.20;;;15.70;32.30;;;;;;20912335;28;20043;-57
2021/03/31 01:14:43;;;;;;;9.63;2.67;;;15.70;32.30;;;;;;20921017;28;20032;-57
2021/03/31 01:24:50;;;;;;;9.50;3.10;;;15.70;31.90;;;;;;20927330;28;20114;-58
2021/03/31 01:34:53;;;;;;;6.13;2.70;;;15.60;32.50;;;;;;20927266;28;20036;-58
2021/03/31 01:44:58;;;;;;;9.73;3.40;;;15.40;32.50;;;;;;20926446;28;20037;-56
2021/03/31 01:54:59;;;;;;;16.85;4.43;;;15.30;32.90;;;;;;20925389;28;20025;-55
2021/03/31 02:05:01;;;;;;;7.15;3.53;;;15.20;33.50;;;;;;20924949;28;20124;-55
2021/03/31 02:15:02;;;;;;;8.13;3.63;;;15.20;35.00;;;;;;20923995;28;20024;-55
2021/03/31 02:25:09;;;;;;;13.80;3.58;;;14.80;37.30;;;;;;20921796;28;20412;-56
2021/03/31 02:35:12;;;;;;;8.68;3.30;;;14.70;38.00;;;;;;20922863;28;20097;-56
2021/03/31 02:45:16;;;;;;;12.50;4.00;;;14.40;40.00;;;;;;20922345;28;20037;-56
2021/03/31 02:55:18;;;;;;;9.50;3.53;;;14.20;40.10;;;;;;20920986;28;20357;-56
2021/03/31 03:05:23;;;;;;;10.45;3.28;;;14.20;41.80;;;;;;20920347;28;20040;-55
2021/03/31 03:15:26;;;;;;;;;;;14.00;41.90;;;;;;20919997;28;20052;-55
2021/03/31 03:25:28;;;;;;;9.60;3.60;;;13.80;42.20;;;;;;20917879;28;20387;-56
2021/03/31 03:35:29;;;;;;;9.25;3.95;;;13.50;42.90;;;;;;20917517;28;20052;-57
2021/03/31 03:45:31;;;;;;;10.15;3.85;;;13.40;43.80;;;;;;20917197;28;20032;-55
2021/03/31 03:55:34;;;;;;;10.30;4.00;;;13.20;43.70;;;;;;20916661;28;20086;-54
2021/03/31 04:05:35;;;;;;;14.00;5.90;;;13.20;44.40;;;;;;20915612;28;20396;-55
2021/03/31 04:15:37;;;;;;;12.63;3.88;;;12.90;45.40;;;;;;20914893;28;20028;-55
2021/03/31 04:25:37;;;;;;;10.57;4.10;;;12.80;46.00;;;;;;20914129;28;20491;-54
2021/03/31 04:35:39;;;;;;;12.60;4.10;;;12.70;46.10;;;;;;20914033;28;20048;-56
2021/03/31 04:45:40;;;;;;;9.63;3.58;;;12.70;46.30;;;;;;20913101;28;20044;-54
2021/03/31 04:55:40;;;;;;;7.07;3.85;;;12.50;46.90;;;;;;20912944;28;20025;-56
2021/03/31 05:05:41;;;;;;;7.85;3.85;;;12.50;47.20;;;;;;20913493;28;20033;-55
2021/03/31 05:15:42;;;;;;;10.88;4.22;;;12.50;47.70;;;;;;20912572;28;20049;-55
2021/03/31 05:25:42;;;;;;;15.18;4.03;;;12.30;48.10;;;;;;20911040;28;20048;-55
2021/03/31 05:35:43;;;;;;;12.30;4.07;;;12.00;49.10;;;;;;20911395;28;20045;-55
2021/03/31 05:45:46;;;;;;;13.73;4.15;;;12.00;48.90;;;;;;20910729;28;20041;-57
2021/03/31 05:55:46;;;;;;;12.20;4.32;;;11.90;49.10;;;;;;20909834;28;20025;-55
2021/03/31 06:05:47;;;;;;;9.85;3.75;;;11.80;49.60;;;;;;20923962;28;20048;-54
2021/03/31 06:15:48;;;;;;;13.30;4.85;;;11.70;49.90;;;;;;20923480;28;20021;-56
2021/03/31 06:26:04;;;;;;;19.27;6.45;;;11.50;49.60;;;;;;20922715;28;20081;-55
2021/03/31 06:36:08;;;;;;;12.00;4.40;;;11.50;50.00;;;;;;20922260;28;20423;-57
2021/03/31 06:46:22;;;;;;;12.98;5.30;;;11.60;50.00;;;;;;20922227;28;20468;-57
2021/03/31 06:56:30;;;;;;;12.80;5.15;;;11.70;49.80;;;;;;20919672;28;20037;-55
2021/03/31 07:06:31;;;;;;;24.83;6.53;;;11.80;49.70;;;;;;20920662;28;20063;-58
2021/03/31 07:16:33;;;;;;;15.95;6.13;;;12.10;49.10;;;;;;20917956;28;20022;-55
2021/03/31 07:26:35;;;;;;;31.77;6.00;;;12.20;48.80;;;;;;20918508;28;20063;-57
2021/03/31 07:36:37;;;;;;;21.13;6.63;;;12.30;48.70;;;;;;20917740;28;20043;-56
2021/03/31 07:46:40;;;;;;;13.13;6.15;;;12.60;47.90;;;;;;20917477;28;20032;-57
2021/03/31 07:56:43;;;;;;;15.90;6.25;;;13.00;46.90;;;;;;20916414;28;20052;-58
2021/03/31 08:06:45;;;;;;;22.52;6.28;;;13.30;45.90;;;;;;20917850;28;20488;-57
2021/03/31 08:16:50;;;;;;;18.45;5.88;;;13.60;45.20;;;;;;20916520;28;20499;-57
2021/03/31 08:26:58;;;;;;;12.10;4.97;;;14.20;43.70;;;;;;20913350;28;20056;-57
2021/03/31 08:37:17;;;;;;;13.27;3.00;;;14.70;41.00;;;;;;20913296;28;20048;-58
2021/03/31 08:47:21;;;;;;;11.80;3.13;;;15.20;37.40;;;;;;20913490;28;20476;-57
2021/03/31 08:57:24;;;;;;;10.43;3.10;;;15.70;35.20;;;;;;20913302;28;20029;-54
2021/03/31 09:07:26;;;;;;;11.60;2.90;;;16.20;33.70;;;;;;20911603;28;20072;-57
2021/03/31 09:17:29;;;;;;;5.53;2.50;;;16.60;31.70;;;;;;20911595;28;20112;-53
2021/03/31 09:27:31;;;;;;;7.78;3.20;;;17.50;38.50;;;;;;20910906;28;20059;-53
2021/03/31 09:37:45;;;;;;;7.85;2.67;;;18.10;34.40;;;;;;20923038;28;20048;-54
2021/03/31 09:47:46;;;;;;;14.77;3.87;;;18.00;30.50;;;;;;20849441;28;20044;-55
2021/03/31 09:57:50;;;;;;;7.43;2.50;;;18.20;32.10;;;;;;20783096;28;20469;-53
2021/03/31 10:08:20;;;;;;;10.45;2.60;;;18.50;29.70;;;;;;20759650;28;20053;-54
2021/03/31 10:18:22;;;;;;;7.88;2.80;;;18.70;28.40;;;;;;20758560;28;20045;-53
2021/03/31 10:28:36;;;;;;;7.13;2.63;;;18.90;28.40;;;;;;20757356;28;20076;-53
2021/03/31 10:38:54;;;;;;;9.93;3.65;;;19.10;28.20;;;;;;20757051;28;20030;-54
2021/03/31 10:59:05;;;;;;;11.57;3.03;;;19.30;28.20;;;;;;20755759;28;20034;-54
2021/03/31 11:09:06;;;;;;;8.45;3.20;;;19.50;28.30;;;;;;20754725;28;20374;-55
2021/03/31 11:19:35;;;;;;;10.98;2.92;;;19.60;27.80;;;;;;20753707;28;20061;-54
2021/03/31 11:29:28;;;;;;;8.52;2.47;;;19.80;28.60;;;;;;20752924;28;20087;-55
2021/03/31 11:39:28;;;;;;;20.02;2.85;;;19.90;28.10;;;;;;20752858;28;20486;-54
2021/03/31 11:49:29;;;;;;;6.72;2.45;;;20.10;28.20;;;;;;20751745;28;20038;-59
2021/03/31 11:59:30;;;;;;;13.18;3.10;;;20.20;27.40;;;;;;20750804;28;20053;-57
2021/03/31 12:09:31;;;;;;;9.65;3.33;;;20.50;26.60;;;;;;20750573;28;20617;-58
2021/03/31 12:19:32;;;;;;;9.25;3.50;;;20.80;26.20;;;;;;20750279;28;20120;-56
2021/03/31 12:29:33;;;;;;;12.23;3.20;;;21.10;25.90;;;;;;20749930;28;20050;-56
2021/03/31 12:39:34;;;;;;;8.68;3.28;;;21.30;25.70;;;;;;20731828;28;20060;-57
2021/03/31 12:49:36;;;;;;;9.20;2.60;;;21.60;25.20;;;;;;20748594;28;20057;-58
2021/03/31 12:59:37;;;;;;;9.07;2.80;;;21.80;25.60;;;;;;20748534;28;20030;-58
2021/03/31 13:09:38;;;;;;;8.73;2.17;;;22.00;25.10;;;;;;20756109;28;20026;-58
2021/03/31 13:40:13;;;;;;;9.95;2.20;;;22.70;23.80;;;;;;20762445;28;20036;-56
2021/03/31 13:50:14;;;;;;;9.00;2.17;;;22.90;23.60;;;;;;20761397;28;20100;-55
2021/03/31 14:00:19;;;;;;;6.10;1.88;;;23.20;22.60;;;;;;20760963;28;20029;-55
2021/03/31 14:10:22;;;;;;;7.65;2.13;;;23.50;22.40;;;;;;20760436;28;20037;-55
2021/03/31 14:20:22;;;;;;;;;;;23.60;22.30;;;;;;20758600;28;20116;-58
2021/03/31 14:30:25;;;;;;;9.77;2.20;;;23.70;21.60;;;;;;20758032;28;19965;-56
2021/03/31 14:40:26;;;;;;;10.15;2.70;;;23.90;21.90;;;;;;20757702;28;20626;-57
2021/03/31 14:50:29;;;;;;;11.57;1.73;;;24.00;22.30;;;;;;20757619;28;20044;-55
2021/03/31 15:00:34;;;;;;;7.63;1.80;;;24.10;21.70;;;;;;20756510;28;20028;-54
2021/03/31 15:10:35;;;;;;;8.70;2.40;;;24.10;21.60;;;;;;20755211;28;20120;-56
2021/03/31 15:20:59;;;;;;;5.15;1.80;;;24.10;22.00;;;;;;20754527;28;20030;-54
2021/03/31 15:31:00;;;;;;;5.28;1.90;;;24.20;22.30;;;;;;20753985;28;20072;-57
2021/03/31 15:41:01;;;;;;;10.18;2.03;;;24.20;23.00;;;;;;20752969;28;20034;-58
2021/03/31 15:51:02;;;;;;;13.20;4.47;;;24.20;22.80;;;;;;20752041;28;20037;-56
2021/03/31 16:01:02;;;;;;;7.35;2.30;;;24.20;23.20;;;;;;20751134;28;20017;-57
2021/03/31 16:11:03;;;;;;;6.53;2.00;;;24.30;23.10;;;;;;20751104;28;20033;-57
2021/03/31 16:21:05;;;;;;;7.13;2.70;;;24.20;23.70;;;;;;20750520;28;20454;-56
2021/03/31 16:31:25;;;;;;;8.27;2.70;;;24.10;23.70;;;;;;20750297;28;20026;-56
2021/03/31 16:41:26;;;;;;;14.35;3.45;;;24.10;23.90;;;;;;20748255;28;20042;-55
2021/03/31 16:51:27;;;;;;;8.90;2.75;;;23.80;24.20;;;;;;20749022;28;20381;-55
2021/03/31 17:01:28;;;;;;;10.02;2.63;;;23.70;24.40;;;;;;20747272;28;20397;-53
2021/03/31 17:11:30;;;;;;;19.90;3.10;;;23.30;25.20;;;;;;20747908;28;20034;-52
2021/03/31 17:21:30;;;;;;;10.40;3.75;;;23.30;25.50;;;;;;20745674;28;20104;-55
2021/03/31 17:31:32;;;;;;;8.00;2.85;;;;;;;;;;20746789;28;20030;-54
2021/03/31 17:41:32;;;;;;;10.13;3.10;;;22.80;26.80;;;;;;20746336;28;20034;-53
2021/03/31 17:51:38;;;;;;;11.90;5.40;;;;;;;;;;20728840;28;20535;-53
2021/03/31 18:01:39;;;;;;;10.43;3.22;;;;;;;;;;20760431;28;20049;-54
2021/03/31 18:11:42;;;;;;;9.63;3.05;;;;;;;;;;20759242;28;20026;-55
2021/03/31 18:21:43;;;;;;;13.67;3.93;;;22.80;27.60;;;;;;20757890;28;20137;-53
2021/03/31 18:31:44;;;;;;;9.05;3.47;;;22.00;28.80;;;;;;20756013;28;20026;-53
2021/03/31 18:51:50;;;;;;;9.85;3.60;;;21.70;29.60;;;;;;20754446;28;20030;-54
2021/03/31 19:01:51;;;;;;;8.75;3.53;;;21.20;30.10;;;;;;20753123;28;20218;-54
2021/03/31 19:11:52;;;;;;;10.48;3.90;;;21.20;30.20;;;;;;20752580;28;20114;-56
2021/03/31 19:21:54;;;;;;;9.00;3.35;;;;;;;;;;20753061;28;20064;-54
2021/03/31 19:31:57;;;;;;;7.30;3.50;;;20.40;31.10;;;;;;20751179;28;20108;-55
2021/03/31 19:41:59;;;;;;;10.25;4.47;;;20.40;31.10;;;;;;20750550;28;20100;-54
2021/03/31 19:52:05;;;;;;;11.93;4.65;;;20.20;31.40;;;;;;20750304;28;20473;-56
2021/03/31 20:02:06;;;;;;;9.50;4.50;;;20.00;31.80;;;;;;20749478;28;20034;-54
2021/03/31 20:12:08;;;;;;;8.85;4.40;;;19.80;32.30;;;;;;20748834;28;20083;-54
2021/03/31 20:22:09;;;;;;;12.05;4.82;;;19.70;32.60;;;;;;20747072;28;20053;-55
2021/03/31 20:32:10;;;;;;;11.05;3.92;;;19.60;33.00;;;;;;20747836;28;20450;-56
2021/03/31 20:42:11;;;;;;;15.20;5.22;;;19.40;33.50;;;;;;20729925;28;20065;-55
2021/03/31 20:52:12;;;;;;;9.90;4.53;;;19.20;34.10;;;;;;20748205;28;20030;-57
2021/03/31 21:02:13;;;;;;;11.07;5.00;;;19.10;34.60;;;;;;20747569;28;20393;-57
2021/03/31 21:12:14;;;;;;;12.57;5.40;;;19.00;34.90;;;;;;20746735;28;20050;-57
2021/03/31 21:22:14;;;;;;;8.30;5.30;;;18.90;35.40;;;;;;20746169;28;20061;-57
2021/03/31 21:32:15;;;;;;;14.90;7.50;;;19.00;35.60;;;;;;20756569;28;20030;-58
2021/03/31 21:42:17;;;;;;;11.13;5.65;;;18.70;36.00;;;;;;20761419;28;20038;-57
2021/03/31 21:52:17;;;;;;;10.15;4.55;;;18.60;35.90;;;;;;20761118;28;20030;-54
2021/03/31 22:02:18;;;;;;;11.18;4.22;;;18.50;38.10;;;;;;20760552;28;20069;-58
2021/03/31 22:12:19;;;;;;;9.23;4.57;;;18.30;38.40;;;;;;20759851;28;20096;-58
2021/03/31 22:22:21;;;;;;;12.88;4.20;;;18.20;37.40;;;;;;20758742;28;20125;-60
2021/03/31 22:32:22;;;;;;;11.35;4.38;;;18.10;37.10;;;;;;20756441;28;20041;-58
2021/03/31 22:42:23;;;;;;;7.20;3.42;;;18.00;36.80;;;;;;20738199;28;20046;-55
2021/03/31 22:52:24;;;;;;;7.43;3.42;;;17.90;35.90;;;;;;20756888;28;20496;-57
2021/03/31 23:02:26;;;;;;;7.90;3.50;;;17.80;36.00;;;;;;20756250;28;20488;-60
2021/03/31 23:12:27;;;;;;;6.65;3.28;;;17.70;34.50;;;;;;20755397;28;20034;-58
2021/03/31 23:22:28;;;;;;;7.57;3.00;;;17.70;34.60;;;;;;20754087;28;20089;-56
2021/03/31 23:32:29;;;;;;;8.20;3.60;;;17.70;34.50;;;;;;20753684;28;20022;-58
2021/03/31 23:42:29;;;;;;;8.73;2.60;;;18.20;32.80;;;;;;20752991;28;20034;-58
2021/03/31 23:52:31;;;;;;;9.93;2.78;;;17.50;32.40;;;;;;20752608;28;20026;-56
